Time;durP1;ratioP1;P1;durP2;ratioP2;P2;SDS_P1;SDS_P2;PMS_P1;PMS_P2;Temp;Humidity;BMP_temperature;BMP_pressure;BME280_temperature;BME280_humidity;BME280_pressure;Samples;Min_cycle;Max_cycle;Signal;HPM_P1;HPM_P2
2023/10/10 00:00:55;;;;;;;1.55;0.80;;;;;;;19.39;55.38;97265.47;10282074;28;20031;-28
2023/10/10 00:05:58;;;;;;;1.48;1.00;;;;;;;19.39;55.42;97265.47;10284096;28;20039;-28
2023/10/10 00:10:59;;;;;;;1.35;0.88;;;;;;;19.40;55.29;97267.16;10290492;28;20386;-28
2023/10/10 00:16:05;;;;;;;1.05;0.85;;;;;;;19.39;55.46;97265.47;10298144;28;20027;-28
2023/10/10 00:21:06;;;;;;;1.57;0.90;;;;;;;19.40;55.50;97282.41;10292671;28;20035;-28
2023/10/10 00:26:07;;;;;;;1.35;0.73;;;;;;;19.40;55.52;97277.31;10291533;28;20494;-28
2023/10/10 00:31:10;;;;;;;1.58;0.82;;;;;;;19.40;55.56;97283.25;10291334;28;20038;-29
2023/10/10 00:36:20;;;;;;;1.25;0.80;;;;;;;19.39;55.39;97293.41;10284844;28;20062;-28
2023/10/10 00:41:22;;;;;;;1.95;0.82;;;;;;;19.38;55.16;97279.00;10293714;28;20468;-28
2023/10/10 00:46:28;;;;;;;2.17;0.60;;;;;;;19.39;55.21;97280.69;10295872;28;20046;-28
2023/10/10 00:51:31;;;;;;;0.90;0.70;;;;;;;19.38;55.38;97271.38;10286785;28;20509;-28
2023/10/10 00:56:32;;;;;;;1.30;0.90;;;;;;;19.39;55.30;97278.16;10290425;28;20043;-28
2023/10/10 01:01:33;;;;;;;2.33;1.30;;;;;;;19.32;55.24;97256.97;10289182;28;20119;-27
2023/10/10 01:06:39;;;;;;;0.90;0.60;;;;;;;19.38;55.38;97273.94;10293268;28;20066;-27
2023/10/10 01:11:42;;;;;;;1.02;0.73;;;;;;;19.38;55.32;97266.31;10290171;28;20035;-28
2023/10/10 01:16:43;;;;;;;1.10;0.60;;;;;;;19.37;55.44;97257.88;10289408;28;20043;-28
2023/10/10 01:21:50;;;;;;;1.33;0.70;;;;;;;19.37;55.25;97262.94;10289972;28;20027;-28
2023/10/10 01:26:51;;;;;;;0.93;0.60;;;;;;;19.38;55.23;97263.78;10289379;28;20030;-27
2023/10/10 01:31:53;;;;;;;1.83;0.80;;;;;;;19.38;55.36;97263.78;10289181;28;20520;-27
2023/10/10 01:36:57;;;;;;;0.90;0.80;;;;;;;19.36;55.34;97256.16;10288933;28;20110;-28
2023/10/10 01:41:58;;;;;;;0.85;0.50;;;;;;;19.37;55.34;97259.53;10286145;28;20497;-28
2023/10/10 01:47:03;;;;;;;1.30;0.60;;;;;;;19.36;55.23;97250.22;10274410;28;20133;-29
2023/10/10 01:52:03;;;;;;;1.75;0.65;;;;;;;19.36;55.11;97235.84;10284358;28;20049;-28
2023/10/10 01:57:07;;;;;;;1.10;0.60;;;;;;;19.38;55.24;97238.38;10292496;28;20393;-29
2023/10/10 02:02:13;;;;;;;1.05;0.70;;;;;;;19.37;55.53;97229.94;10285825;28;20034;-27
2023/10/10 02:07:21;;;;;;;0.98;0.60;;;;;;;19.35;55.09;97229.06;10286569;28;20045;-28
2023/10/10 02:12:22;;;;;;;1.70;0.98;;;;;;;19.38;55.02;97228.22;10282362;28;20485;-28
2023/10/10 02:17:24;;;;;;;1.42;0.95;;;;;;;19.37;55.18;97226.53;10280663;28;20036;-28
2023/10/10 02:27:55;;;;;;;1.55;1.38;;;;;;;19.36;55.22;97224.84;10285507;28;20027;-27
2023/10/10 02:32:57;;;;;;;1.25;0.88;;;;;;;19.36;55.02;97229.91;10284773;28;20035;-27
2023/10/10 02:38:03;;;;;;;3.03;1.88;;;;;;;19.36;55.10;97224.84;10282993;28;20037;-28
2023/10/10 02:43:33;;;;;;;1.85;0.70;;;;;;;19.37;55.09;97231.59;10287443;28;20521;-27
2023/10/10 02:48:38;;;;;;;1.17;0.60;;;;;;;19.35;55.05;97223.13;10276677;28;20525;-28
2023/10/10 02:53:45;;;;;;;2.25;0.70;;;;;;;19.35;54.95;97218.91;10279692;28;20039;-28
2023/10/10 02:58:48;;;;;;;0.68;0.68;;;;;;;19.35;55.06;97203.66;10281917;28;20493;-29
2023/10/10 03:03:54;;;;;;;1.40;0.70;;;;;;;19.35;54.84;97202.84;10285372;28;20409;-27
2023/10/10 03:09:12;;;;;;;0.50;0.40;;;;;;;19.35;55.11;97207.91;10283484;28;20033;-28
2023/10/10 03:14:25;;;;;;;1.88;0.50;;;;;;;19.34;54.84;97198.59;10281214;28;20493;-27
2023/10/10 03:19:27;;;;;;;1.40;0.80;;;;;;;19.35;54.63;97193.50;10284325;28;20023;-28
2023/10/10 03:29:49;;;;;;;1.70;0.85;;;;;;;19.33;55.09;97190.13;10283935;28;20031;-28
2023/10/10 03:35:20;;;;;;;0.50;0.40;;;;;;;19.35;55.12;97192.69;10284373;28;20398;-28
2023/10/10 03:40:26;;;;;;;1.38;0.60;;;;;;;19.35;55.13;97190.13;10282315;28;20027;-28
2023/10/10 05:26:24;;;;;;;3.13;1.65;;;;;;;19.36;54.50;97189.28;10287923;28;20113;-28
2023/10/10 05:31:30;;;;;;;16.20;2.67;;;;;;;19.22;55.12;97186.69;10288919;28;20093;-27
2023/10/10 05:36:30;;;;;;;3.53;1.70;;;;;;;19.28;55.37;97180.78;10289447;28;20039;-27
2023/10/10 05:41:32;;;;;;;6.00;1.43;;;;;;;19.31;55.21;97168.09;10289129;28;20038;-29
2023/10/10 05:46:34;;;;;;;6.30;1.85;;;;;;;19.31;55.20;97168.09;10288562;28;20026;-28
2023/10/10 05:51:35;;;;;;;6.05;1.67;;;;;;;19.33;54.94;97166.44;10278743;28;20771;-28
2023/10/10 05:56:37;;;;;;;4.10;1.50;;;;;;;19.34;55.08;97180.81;10288907;28;20031;-28
2023/10/10 06:01:38;;;;;;;5.82;2.05;;;;;;;19.33;54.86;97177.44;10288214;28;20045;-29
2023/10/10 06:06:38;;;;;;;6.55;1.92;;;;;;;19.33;54.82;97179.97;10288099;28;20052;-28
2023/10/10 06:11:39;;;;;;;5.07;1.43;;;;;;;19.33;55.02;97182.50;10287556;28;20037;-27
2023/10/10 06:16:39;;;;;;;4.73;1.50;;;;;;;19.33;55.09;97194.38;10287080;28;20374;-28
2023/10/10 06:21:40;;;;;;;5.03;1.13;;;;;;;19.33;54.99;97189.28;10287921;28;20082;-28
2023/10/10 06:26:46;;;;;;;6.18;1.38;;;;;;;19.32;54.96;97188.44;10287666;28;20102;-30
2023/10/10 06:31:46;;;;;;;6.47;1.60;;;;;;;19.33;54.96;97191.81;10285785;28;20125;-28
2023/10/10 06:36:48;;;;;;;3.67;1.40;;;;;;;19.32;54.88;97192.63;10289430;28;20113;-29
2023/10/10 06:41:51;;;;;;;5.00;1.27;;;;;;;19.32;54.83;97205.34;10287031;28;20041;-28
2023/10/10 06:46:51;;;;;;;3.80;0.93;;;;;;;19.33;55.67;97204.53;10286416;28;20046;-29
2023/10/10 06:51:55;;;;;;;4.27;1.33;;;;;;;19.33;54.98;97199.44;10282566;28;20053;-28
2023/10/10 07:02:00;;;;;;;3.75;1.17;;;;;;;19.32;54.87;97207.88;10283483;28;20037;-27
2023/10/10 07:07:00;;;;;;;4.10;1.00;;;;;;;19.31;55.13;97207.03;10285698;28;20511;-28
2023/10/10 07:12:09;;;;;;;3.97;1.50;;;;;;;19.25;54.89;97183.34;10286273;28;20373;-28
2023/10/10 07:17:13;;;;;;;4.43;1.08;;;;;;;19.32;55.02;97202.78;10292149;28;20146;-28
2023/10/10 07:22:13;;;;;;;3.90;1.02;;;;;;;19.32;55.08;97203.66;10299614;28;20513;-27
2023/10/10 07:27:18;;;;;;;2.87;1.07;;;;;;;19.30;54.82;97204.50;10299354;28;20038;-28
2023/10/10 07:32:27;;;;;;;3.72;1.23;;;;;;;19.32;54.67;97207.88;10299213;28;20136;-28
2023/10/10 07:37:29;;;;;;;5.25;1.45;;;;;;;19.33;55.04;97217.22;10297591;28;20038;-28
2023/10/10 07:42:30;;;;;;;3.83;1.40;;;;;;;19.33;55.12;97223.13;10299847;28;20030;-28
2023/10/10 07:47:32;;;;;;;3.58;1.05;;;;;;;19.33;55.34;97219.75;10298180;28;20448;-28
2023/10/10 07:52:35;;;;;;;5.88;1.80;;;;;;;19.33;55.22;97214.69;10287482;28;20093;-27
2023/10/10 08:02:54;;;;;;;3.90;1.42;;;;;;;19.32;54.88;97223.97;10298196;28;20046;-28
2023/10/10 08:07:55;;;;;;;2.50;1.13;;;;;;;19.32;54.99;97218.03;10298530;28;20452;-28
2023/10/10 08:12:56;;;;;;;3.22;1.77;;;;;;;19.32;54.96;97223.09;10294122;28;20030;-28
2023/10/10 08:17:58;;;;;;;4.53;1.25;;;;;;;19.32;55.01;97223.97;10297577;28;20038;-29
2023/10/10 08:23:01;;;;;;;1.88;1.08;;;;;;;19.31;54.97;97221.41;10295729;28;20034;-28
2023/10/10 08:28:01;;;;;;;2.22;1.02;;;;;;;19.33;54.93;97224.84;10295888;28;20045;-28
2023/10/10 08:33:02;;;;;;;2.42;0.98;;;;;;;19.32;55.12;97223.09;10291532;28;20035;-27
2023/10/10 08:38:03;;;;;;;2.53;1.10;;;;;;;19.32;54.95;97223.09;10284765;28;20053;-28
2023/10/10 08:43:07;;;;;;;1.15;1.00;;;;;;;19.31;54.90;97217.19;10291925;28;20046;-29
2023/10/10 08:48:12;;;;;;;2.20;0.90;;;;;;;19.33;54.86;97214.69;10290713;28;20038;-28
2023/10/10 08:53:13;;;;;;;1.35;0.85;;;;;;;19.33;55.04;97224.84;10279196;28;20033;-29
2023/10/10 08:58:13;;;;;;;4.22;1.13;;;;;;;19.32;54.98;97223.97;10290578;28;20031;-29
2023/10/10 09:03:14;;;;;;;3.47;1.02;;;;;;;19.31;55.26;97226.50;10290770;28;20046;-28
2023/10/10 09:08:15;;;;;;;1.73;0.88;;;;;;;19.33;54.80;97232.44;10290160;28;20494;-28
2023/10/10 09:13:16;;;;;;;1.60;0.85;;;;;;;19.32;55.36;97226.50;10289646;28;20039;-29
2023/10/10 09:18:22;;;;;;;2.22;1.30;;;;;;;19.33;55.25;97227.38;10289334;28;20030;-27
2023/10/10 09:23:27;;;;;;;3.53;1.10;;;;;;;19.32;55.00;97230.72;10285421;28;20049;-28
2023/10/10 09:28:36;;;;;;;1.90;0.77;;;;;;;19.32;55.16;97234.13;10289039;28;20401;-29
2023/10/10 09:33:42;;;;;;;1.25;0.70;;;;;;;19.33;54.91;97229.91;10290288;28;20062;-28
2023/10/10 09:38:46;;;;;;;1.42;0.70;;;;;;;19.32;55.14;97236.66;10288554;28;20484;-28
2023/10/10 09:54:44;;;;;;;2.53;1.02;;;;;;;19.33;55.14;97219.75;10286427;28;20054;-28
2023/10/10 09:59:48;;;;;;;2.58;1.25;;;;;;;19.33;54.94;97219.75;10287948;28;20486;-27
2023/10/10 10:04:49;;;;;;;1.30;0.70;;;;;;;19.33;55.14;97224.84;10288957;28;20045;-29
2023/10/10 10:10:22;;;;;;;4.07;1.10;;;;;;;19.35;55.17;97218.06;10289532;28;20398;-27
2023/10/10 10:15:56;;;;;;;3.85;0.98;;;;;;;19.34;55.23;97231.59;10287129;28;20506;-27
2023/10/10 10:26:11;;;;;;;2.10;0.93;;;;;;;19.33;55.20;97227.38;10287759;28;20034;-28
2023/10/10 10:31:16;;;;;;;4.47;1.73;;;;;;;19.34;55.45;97231.59;10286974;28;20039;-28
2023/10/10 10:36:17;;;;;;;2.15;1.10;;;;;;;19.34;55.23;97226.53;10294396;28;20428;-28
2023/10/10 10:41:18;;;;;;;4.32;1.10;;;;;;;19.32;55.10;97220.56;10287128;28;20049;-27
2023/10/10 10:46:27;;;;;;;2.15;0.90;;;;;;;19.33;55.41;97214.69;10286526;28;20391;-28
2023/10/10 10:51:41;;;;;;;2.47;1.40;;;;;;;19.35;55.41;97218.06;10281288;28;20042;-28
2023/10/10 10:56:45;;;;;;;1.33;0.63;;;;;;;19.34;55.08;97211.28;10285997;28;20409;-28
2023/10/10 11:01:55;;;;;;;3.20;0.90;;;;;;;19.35;55.32;97202.84;10285698;28;20030;-28
2023/10/10 11:06:59;;;;;;;2.30;0.90;;;;;;;19.35;55.28;97202.84;10287221;28;20120;-28
2023/10/10 11:12:03;;;;;;;1.73;0.70;;;;;;;19.33;55.26;97192.66;10285497;28;20493;-27
2023/10/10 11:17:07;;;;;;;6.03;1.55;;;;;;;19.35;55.69;97197.75;10284425;28;20126;-28
2023/10/10 11:22:16;;;;;;;3.28;1.10;;;;;;;19.34;55.43;97188.44;10283355;28;20042;-28
2023/10/10 11:27:21;;;;;;;26.15;1.52;;;;;;;19.33;55.55;97186.75;10283186;28;20031;-28
2023/10/10 11:32:29;;;;;;;11.70;2.20;;;;;;;19.34;55.45;97185.91;10284636;28;20030;-28
2023/10/10 11:37:33;;;;;;;4.72;1.20;;;;;;;19.34;55.40;97176.56;10283745;28;20504;-28
2023/10/10 11:42:34;;;;;;;6.57;2.10;;;;;;;19.35;55.32;97172.38;10291802;28;20038;-28
2023/10/10 11:47:42;;;;;;;2.63;0.80;;;;;;;19.35;55.01;97177.44;10284942;28;20050;-28
2023/10/10 11:52:56;;;;;;;6.75;2.70;;;;;;;19.35;55.35;97173.19;10270895;28;20030;-29
2023/10/10 11:58:06;;;;;;;8.57;1.40;;;;;;;19.33;55.30;97156.28;10282606;28;20058;-28
2023/10/10 12:03:06;;;;;;;2.30;0.90;;;;;;;19.35;55.63;97157.13;10285806;28;20122;-28
2023/10/10 12:08:07;;;;;;;15.80;3.60;;;;;;;19.37;55.55;97156.31;10297349;28;20035;-28
2023/10/10 12:13:09;;;;;;;17.20;4.60;;;;;;;19.37;55.56;97155.44;10292535;28;20039;-28
2023/10/10 12:18:11;;;;;;;8.02;1.50;;;;;;;19.36;57.06;97148.66;10292614;28;20026;-28
2023/10/10 12:23:11;;;;;;;7.60;1.67;;;;;;;19.38;56.12;97157.13;10289335;28;20089;-27
2023/10/10 12:28:17;;;;;;;11.93;3.65;;;;;;;19.40;57.27;97145.28;10291071;28;20038;-27
2023/10/10 12:33:19;;;;;;;6.63;2.25;;;;;;;19.38;55.83;97145.28;10286776;28;20040;-28
2023/10/10 12:38:23;;;;;;;9.38;3.10;;;;;;;19.37;55.72;97135.13;10291141;28;20050;-28
2023/10/10 12:43:26;;;;;;;10.25;4.22;;;;;;;19.39;57.92;97135.97;10290876;28;20058;-30
2023/10/10 12:48:26;;;;;;;8.50;2.95;;;;;;;19.33;56.42;97128.34;10291212;28;20550;-28
2023/10/10 12:53:30;;;;;;;29.10;3.95;;;;;;;19.41;56.71;97132.59;10294868;28;20122;-29
2023/10/10 12:58:32;;;;;;;21.75;4.68;;;;;;;19.41;56.41;97131.75;10288099;28;20046;-28
2023/10/10 13:03:32;;;;;;;14.75;4.28;;;;;;;19.39;56.35;97123.28;10290954;28;20413;-28
2023/10/10 13:09:08;;;;;;;16.20;4.10;;;;;;;19.40;56.61;97123.28;10296621;28;20039;-28
2023/10/10 13:14:10;;;;;;;16.60;2.92;;;;;;;19.39;56.23;97120.72;10288194;28;20050;-28
2023/10/10 13:19:11;;;;;;;15.77;3.70;;;;;;;19.43;56.73;97117.38;10294903;28;20517;-28
2023/10/10 13:24:13;;;;;;;14.48;2.40;;;;;;;19.42;56.83;97119.06;10286281;28;20057;-29
2023/10/10 13:29:16;;;;;;;13.65;2.70;;;;;;;19.44;56.57;97111.44;10289291;28;20041;-29
2023/10/10 13:34:16;;;;;;;11.20;2.28;;;;;;;19.46;56.36;97108.06;10283946;28;20045;-29
2023/10/10 13:39:33;;;;;;;6.72;2.17;;;;;;;19.48;56.19;97108.06;10287451;28;20401;-29
2023/10/10 13:44:33;;;;;;;8.30;2.22;;;;;;;19.49;56.36;97107.25;10285208;28;20046;-28
2023/10/10 13:49:44;;;;;;;6.82;2.20;;;;;;;19.49;56.36;97100.44;10288086;28;20446;-30
2023/10/10 13:54:44;;;;;;;7.65;3.08;;;;;;;19.51;56.59;97097.94;10282405;28;20027;-29
2023/10/10 13:59:49;;;;;;;12.47;3.30;;;;;;;19.54;56.67;97087.75;10285101;28;20085;-29
2023/10/10 14:04:50;;;;;;;5.38;2.67;;;;;;;19.53;56.54;97093.69;10288465;28;20042;-28
2023/10/10 14:09:50;;;;;;;11.80;4.50;;;;;;;19.53;56.35;97094.56;10285946;28;20465;-29
2023/10/10 14:14:51;;;;;;;7.23;2.70;;;;;;;19.51;56.49;97080.16;10284158;28;20046;-28
2023/10/10 14:19:52;;;;;;;12.00;3.33;;;;;;;19.51;56.41;97088.59;10290015;28;20298;-29
2023/10/10 14:24:52;;;;;;;9.43;4.15;;;;;;;19.52;56.32;97090.28;10288243;28;20041;-30
2023/10/10 14:29:53;;;;;;;18.93;5.67;;;;;;;19.52;56.13;97082.66;10288508;28;20031;-29
2023/10/10 14:34:53;;;;;;;10.50;4.47;;;;;;;19.51;56.25;97088.59;10288461;28;20038;-29
2023/10/10 14:39:55;;;;;;;17.80;5.10;;;;;;;19.52;57.18;97092.00;10288507;28;20045;-28
2023/10/10 14:44:55;;;;;;;13.20;4.55;;;;;;;19.52;57.00;97085.22;10287985;28;20053;-29
2023/10/10 14:49:56;;;;;;;12.53;4.40;;;;;;;19.52;56.99;97079.31;10290891;28;20037;-29
2023/10/10 14:54:56;;;;;;;13.93;4.03;;;;;;;19.51;57.03;97092.84;10289460;28;20488;-29
2023/10/10 14:59:56;;;;;;;13.27;3.40;;;;;;;19.51;56.93;97088.59;10284871;28;20298;-28
2023/10/10 15:05:02;;;;;;;8.67;4.00;;;;;;;19.51;56.92;97087.75;10288996;28;20143;-33
2023/10/10 15:10:03;;;;;;;7.75;3.67;;;;;;;19.48;57.07;97086.06;10284171;28;20035;-28
2023/10/10 15:15:04;;;;;;;9.30;3.38;;;;;;;19.49;57.05;97087.75;10286923;28;20042;-28
2023/10/10 15:20:06;;;;;;;7.50;4.18;;;;;;;19.49;57.30;97092.00;10288320;28;20033;-28
2023/10/10 15:25:10;;;;;;;8.50;4.30;;;;;;;19.49;56.95;97097.09;10287435;28;20030;-28
2023/10/10 15:30:11;;;;;;;6.20;3.50;;;;;;;19.48;57.27;97096.22;10284851;28;20031;-31
2023/10/10 15:35:11;;;;;;;5.60;3.20;;;;;;;19.48;57.29;97097.91;10288855;28;20037;-29
2023/10/10 15:40:13;;;;;;;6.63;3.25;;;;;;;19.46;57.07;97095.38;10292095;28;20031;-28
2023/10/10 15:45:20;;;;;;;11.35;3.10;;;;;;;19.45;57.04;97087.75;10292855;28;20030;-29
2023/10/10 15:50:23;;;;;;;9.32;3.70;;;;;;;19.47;57.01;97098.75;10283917;28;20035;-29
2023/10/10 15:55:24;;;;;;;8.85;3.47;;;;;;;19.47;57.67;97097.06;10292222;28;20126;-28
2023/10/10 16:00:34;;;;;;;6.28;3.10;;;;;;;19.45;57.21;97093.69;10292672;28;20456;-29
2023/10/10 16:05:39;;;;;;;6.95;2.92;;;;;;;19.45;57.07;97096.22;10293364;28;20043;-29
2023/10/10 16:10:39;;;;;;;13.85;4.00;;;;;;;19.46;57.63;97095.38;10291871;28;20667;-31
2023/10/10 16:15:40;;;;;;;9.30;2.90;;;;;;;19.48;57.69;97102.97;10290395;28;20039;-30
2023/10/10 16:20:40;;;;;;;7.50;3.07;;;;;;;19.52;57.26;97099.63;10287655;28;20030;-30
2023/10/10 16:25:40;;;;;;;8.23;3.60;;;;;;;19.55;56.66;97104.69;10292344;28;20038;-31
2023/10/10 16:30:41;;;;;;;4.80;2.47;;;;;;;19.58;57.18;97102.19;10291733;28;20505;-31
2023/10/10 16:35:46;;;;;;;6.28;3.10;;;;;;;19.61;56.97;97109.78;10292545;28;20039;-31
2023/10/10 16:40:46;;;;;;;8.07;3.03;;;;;;;19.62;57.13;97112.34;10291612;28;20058;-30
2023/10/10 16:45:49;;;;;;;8.03;2.90;;;;;;;19.62;57.17;97116.56;10285120;28;20037;-31
2023/10/10 16:50:49;;;;;;;8.45;3.08;;;;;;;19.66;56.93;97114.03;10277204;28;20039;-31
2023/10/10 16:55:51;;;;;;;6.37;2.70;;;;;;;19.67;57.26;97112.34;10273243;28;20035;-31
2023/10/10 17:00:52;;;;;;;8.60;2.67;;;;;;;19.71;56.77;97117.44;10285128;28;20791;-31
2023/10/10 17:05:52;;;;;;;11.02;3.22;;;;;;;19.73;57.06;97112.34;10272419;28;20056;-29
2023/10/10 17:11:20;;;;;;;6.60;2.90;;;;;;;19.77;57.59;97119.13;10285751;28;20050;-30
2023/10/10 17:16:27;;;;;;;6.53;2.95;;;;;;;19.77;57.42;97126.75;10267417;28;20047;-31
2023/10/10 17:21:28;;;;;;;5.22;3.22;;;;;;;19.73;57.17;97125.03;10280605;28;20034;-31
2023/10/10 17:26:30;;;;;;;10.27;3.42;;;;;;;19.74;57.25;97130.13;10284020;28;20042;-33
2023/10/10 17:31:30;;;;;;;7.68;2.92;;;;;;;19.73;57.13;97137.75;10272393;28;20043;-31
2023/10/10 17:36:32;;;;;;;71.28;6.07;;;;;;;19.73;57.23;97135.19;10277010;28;20051;-31
2023/10/10 17:41:34;;;;;;;7.88;2.92;;;;;;;19.73;57.22;97140.28;10287362;28;20035;-31
2023/10/10 17:46:35;;;;;;;7.63;2.80;;;;;;;19.68;57.18;97137.72;10277409;28;20034;-31
2023/10/10 17:51:35;;;;;;;4.73;2.40;;;;;;;19.70;56.78;97141.16;10281084;28;20027;-30
2023/10/10 17:56:36;;;;;;;6.03;2.85;;;;;;;19.72;57.05;97143.66;10295270;28;20296;-31
2023/10/10 18:01:37;;;;;;;6.03;2.90;;;;;;;19.69;56.82;97138.59;10300750;28;20034;-29
2023/10/10 18:06:40;;;;;;;4.68;2.60;;;;;;;19.69;56.89;97143.69;10300822;28;20022;-29
2023/10/10 18:11:40;;;;;;;7.53;2.53;;;;;;;19.75;57.83;97149.59;10290186;28;20035;-30
2023/10/10 18:16:40;;;;;;;4.93;2.07;;;;;;;19.73;57.04;97150.44;10286850;28;20038;-30
2023/10/10 18:21:41;;;;;;;5.77;2.27;;;;;;;19.66;55.78;97158.91;10275189;28;20038;-31
2023/10/10 18:26:44;;;;;;;2.65;1.30;;;;;;;19.64;55.09;97160.59;10280219;28;20035;-30
2023/10/10 18:31:44;;;;;;;2.63;1.38;;;;;;;19.61;54.97;97155.50;10282948;28;20504;-30
2023/10/10 18:36:46;;;;;;;3.80;1.63;;;;;;;19.62;54.93;97157.19;10280558;28;20045;-31
2023/10/10 18:41:47;;;;;;;2.05;1.30;;;;;;;19.60;54.66;97149.56;10282547;28;20370;-29
2023/10/10 18:46:48;;;;;;;2.20;1.30;;;;;;;19.60;54.63;97153.81;10279583;28;20801;-30
2023/10/10 18:51:48;;;;;;;3.60;1.47;;;;;;;19.59;54.69;97152.13;10283736;28;20302;-31
2023/10/10 18:56:49;;;;;;;2.63;1.10;;;;;;;19.61;54.68;97150.44;10272680;28;20034;-29
2023/10/10 19:01:50;;;;;;;2.85;1.15;;;;;;;19.60;56.10;97154.66;10285193;28;20094;-30
2023/10/10 19:06:51;;;;;;;1.67;1.17;;;;;;;19.64;55.14;97155.50;10277701;28;20031;-30
2023/10/10 19:11:57;;;;;;;3.92;1.40;;;;;;;19.66;55.03;97158.91;10278487;28;20420;-30
2023/10/10 19:16:57;;;;;;;3.40;1.45;;;;;;;19.71;55.10;97163.16;10281582;28;20089;-31
2023/10/10 19:21:59;;;;;;;3.07;1.30;;;;;;;19.69;55.22;97157.22;10294436;28;20100;-30
2023/10/10 19:27:00;;;;;;;2.03;1.45;;;;;;;19.69;55.24;97159.75;10291926;28;20042;-30
2023/10/10 19:32:00;;;;;;;2.72;1.75;;;;;;;19.68;55.38;97152.16;10287915;28;20041;-30
2023/10/10 19:37:01;;;;;;;2.60;1.53;;;;;;;19.69;55.48;97151.31;10291937;28;20043;-31
2023/10/10 19:42:03;;;;;;;4.03;2.10;;;;;;;19.71;55.92;97147.91;10273695;28;20038;-30
2023/10/10 19:47:06;;;;;;;4.63;1.90;;;;;;;19.71;55.45;97157.22;10284825;28;20328;-30
2023/10/10 19:52:11;;;;;;;2.50;1.73;;;;;;;19.65;55.58;97137.75;10274457;28;20469;-30
2023/10/10 19:57:12;;;;;;;4.75;1.50;;;;;;;19.68;55.63;97142.00;10278958;28;20023;-31
2023/10/10 20:02:14;;;;;;;3.00;1.55;;;;;;;19.67;55.41;97141.13;10286122;28;20084;-30
2023/10/10 20:07:15;;;;;;;3.30;2.08;;;;;;;19.66;55.59;97138.59;10284964;28;20186;-30
2023/10/10 20:12:15;;;;;;;3.10;1.43;;;;;;;19.64;55.64;97135.19;10280967;28;20029;-30
2023/10/10 20:17:15;;;;;;;2.63;1.50;;;;;;;19.65;55.75;97139.41;10281385;28;20034;-30
2023/10/10 20:22:16;;;;;;;4.00;1.43;;;;;;;19.65;55.60;97139.41;10285392;28;20490;-29
2023/10/10 20:27:19;;;;;;;3.13;1.48;;;;;;;19.63;55.79;97134.34;10292499;28;20166;-30
2023/10/10 20:32:20;;;;;;;1.95;1.40;;;;;;;19.64;55.71;97130.97;10288622;28;20037;-30
2023/10/10 20:37:21;;;;;;;2.47;1.33;;;;;;;19.64;55.69;97130.97;10288392;28;20034;-30
2023/10/10 20:42:22;;;;;;;2.13;1.67;;;;;;;19.63;55.64;97118.25;10288188;28;20305;-30
2023/10/10 20:47:23;;;;;;;2.58;1.45;;;;;;;19.63;55.86;97134.34;10290671;28;20391;-29
2023/10/10 20:52:25;;;;;;;2.65;1.60;;;;;;;19.63;55.87;97128.41;10279883;28;20039;-29
2023/10/10 20:57:25;;;;;;;2.45;1.63;;;;;;;19.63;55.79;97128.41;10290972;28;20045;-30
2023/10/10 21:02:26;;;;;;;2.10;1.23;;;;;;;19.59;55.75;97121.66;10290440;28;20383;-31
2023/10/10 21:07:27;;;;;;;2.63;1.80;;;;;;;19.62;55.74;97126.72;10288098;28;20305;-29
2023/10/10 21:12:27;;;;;;;2.85;1.20;;;;;;;19.63;55.62;97128.41;10290896;28;20117;-29
2023/10/10 21:17:28;;;;;;;2.33;1.40;;;;;;;19.61;55.86;97125.84;10289851;28;20465;-31
2023/10/10 21:22:28;;;;;;;2.15;1.45;;;;;;;19.62;55.71;97124.19;10290371;28;20528;-30
2023/10/10 21:27:28;;;;;;;2.37;1.60;;;;;;;19.61;55.80;97130.09;10290297;28;20053;-30
2023/10/10 21:32:30;;;;;;;1.67;1.07;;;;;;;19.62;55.77;97129.25;10289536;28;20324;-29
2023/10/10 21:37:30;;;;;;;1.50;1.02;;;;;;;19.61;55.50;97130.09;10288525;28;20045;-30
2023/10/10 21:42:30;;;;;;;2.30;1.20;;;;;;;19.61;55.75;97125.84;10286470;28;20041;-30
2023/10/10 21:47:32;;;;;;;1.30;1.20;;;;;;;19.60;55.82;97123.34;10281390;28;20043;-30
2023/10/10 21:52:33;;;;;;;1.58;1.25;;;;;;;19.60;55.67;97118.25;10279740;28;20485;-29
2023/10/10 21:57:35;;;;;;;1.30;0.95;;;;;;;19.60;55.72;97114.00;10288902;28;20042;-29
2023/10/10 22:02:38;;;;;;;2.17;1.40;;;;;;;19.60;55.70;97118.25;10284471;28;20034;-29
2023/10/10 22:07:42;;;;;;;2.35;0.90;;;;;;;19.61;55.75;97114.88;10287702;28;20505;-30
2023/10/10 22:12:43;;;;;;;1.55;1.05;;;;;;;19.60;55.78;97113.19;10288745;28;20105;-29
2023/10/10 22:17:44;;;;;;;2.90;1.38;;;;;;;19.60;55.70;97108.09;10287692;28;20045;-28
2023/10/10 22:22:44;;;;;;;2.20;1.27;;;;;;;19.60;55.57;97105.56;10284605;28;20038;-29
2023/10/10 22:27:46;;;;;;;2.75;1.23;;;;;;;19.60;55.90;97100.47;10287520;28;20464;-28
2023/10/10 22:32:47;;;;;;;2.28;1.70;;;;;;;19.59;55.77;97093.72;10286808;28;20415;-30
2023/10/10 22:37:52;;;;;;;2.55;1.67;;;;;;;19.59;55.67;97093.72;10286855;28;20528;-29
2023/10/10 22:43:01;;;;;;;1.58;1.10;;;;;;;19.59;55.54;97088.63;10280718;28;20118;-28
2023/10/10 22:48:03;;;;;;;2.97;1.40;;;;;;;19.58;55.52;97089.47;10286462;28;20073;-28
2023/10/10 22:53:04;;;;;;;1.45;0.98;;;;;;;19.58;55.85;97087.75;10274758;28;20046;-29
2023/10/10 22:58:07;;;;;;;2.13;1.65;;;;;;;19.59;55.41;97089.47;10278155;28;20089;-29
2023/10/10 23:03:09;;;;;;;5.97;1.13;;;;;;;19.59;55.60;97083.56;10278534;28;20039;-29
2023/10/10 23:08:10;;;;;;;3.22;1.10;;;;;;;19.59;55.83;97083.56;10285892;28;20031;-29
2023/10/10 23:13:12;;;;;;;2.30;1.33;;;;;;;19.58;55.60;97080.16;10285388;28;20035;-28
2023/10/10 23:18:16;;;;;;;1.90;1.10;;;;;;;19.58;55.64;97080.16;10281292;28;20035;-29
2023/10/10 23:23:16;;;;;;;1.73;1.20;;;;;;;19.56;55.15;97075.91;10278676;28;20478;-28
2023/10/10 23:28:17;;;;;;;3.73;1.00;;;;;;;19.58;55.53;97090.31;10284286;28;20039;-28
2023/10/10 23:33:17;;;;;;;1.85;1.10;;;;;;;19.59;55.77;97091.16;10280802;28;20039;-29
2023/10/10 23:38:19;;;;;;;2.33;1.10;;;;;;;19.57;55.53;97083.53;10287606;28;20607;-28
2023/10/10 23:43:21;;;;;;;1.42;0.90;;;;;;;19.58;55.41;97084.41;10291060;28;20550;-29
2023/10/10 23:48:28;;;;;;;2.08;1.02;;;;;;;19.57;55.74;97081.00;10289311;28;20039;-29
2023/10/10 23:53:28;;;;;;;1.52;0.95;;;;;;;19.53;55.56;97075.91;10280337;28;20062;-29
2023/10/10 23:58:29;;;;;;;3.13;0.93;;;;;;;19.57;55.42;97073.38;10287335;28;20069;-28
